Time;durP1;ratioP1;P1;durP2;ratioP2;P2;SDS_P1;SDS_P2;PMS_P1;PMS_P2;Temp;Humidity;BMP_temperature;BMP_pressure;BME280_temperature;BME280_humidity;BME280_pressure;Samples;Min_cycle;Max_cycle;Signal;HPM_P1;HPM_P2
2023/12/28 00:01:28;;;;;;;7.90;4.67;;;5.80;99.90;;;;;;4959270;28;20677;-58
2023/12/28 00:03:53;;;;;;;6.93;4.40;;;5.90;99.90;;;;;;4962530;28;20816;-63
2023/12/28 00:06:19;;;;;;;5.87;4.13;;;5.90;99.90;;;;;;4961054;28;20281;-63
2023/12/28 00:08:44;;;;;;;7.03;4.20;;;5.90;99.90;;;;;;4958819;28;20236;-64
2023/12/28 00:11:10;;;;;;;5.97;3.77;;;5.90;99.90;;;;;;4961958;28;20201;-63
2023/12/28 00:13:35;;;;;;;6.83;3.90;;;5.90;99.90;;;;;;4956917;28;20350;-63
2023/12/28 00:16:01;;;;;;;6.73;3.07;;;6.00;99.90;;;;;;4958216;28;20202;-63
2023/12/28 00:18:26;;;;;;;5.97;3.73;;;6.00;99.90;;;;;;4952272;28;20205;-54
2023/12/28 00:20:52;;;;;;;5.10;4.17;;;6.00;99.90;;;;;;4953349;28;20201;-54
2023/12/28 00:23:20;;;;;;;7.77;4.03;;;6.00;99.90;;;;;;4954100;28;20204;-55
2023/12/28 00:25:45;;;;;;;4.90;3.87;;;6.10;99.90;;;;;;4954490;28;20197;-55
2023/12/28 00:28:11;;;;;;;6.90;3.80;;;6.10;99.90;;;;;;4952060;28;20252;-54
2023/12/28 00:30:36;;;;;;;8.30;4.00;;;6.10;99.90;;;;;;4955196;28;20200;-61
2023/12/28 00:33:02;;;;;;;7.33;4.07;;;6.10;99.90;;;;;;4953640;28;20205;-55
2023/12/28 00:35:28;;;;;;;6.03;3.47;;;6.00;99.90;;;;;;4961691;28;20189;-53
2023/12/28 00:37:53;;;;;;;8.67;3.93;;;6.00;99.90;;;;;;4961288;28;20822;-53
2023/12/28 00:40:19;;;;;;;6.90;3.37;;;6.10;99.90;;;;;;4955247;28;20198;-55
2023/12/28 00:42:44;;;;;;;5.80;3.30;;;6.00;99.90;;;;;;4956451;28;20857;-54
2023/12/28 00:45:10;;;;;;;5.20;3.47;;;6.10;99.90;;;;;;4948978;28;20202;-54
2023/12/28 00:47:35;;;;;;;5.77;3.40;;;6.20;99.90;;;;;;4955114;28;20772;-56
2023/12/28 00:50:01;;;;;;;3.57;3.23;;;6.10;99.90;;;;;;4953080;28;20233;-55
2023/12/28 00:52:26;;;;;;;4.83;3.83;;;6.30;99.90;;;;;;4958197;28;20197;-55
2023/12/28 00:54:52;;;;;;;4.57;3.27;;;6.30;99.90;;;;;;4954737;28;20210;-62
2023/12/28 00:57:18;;;;;;;5.37;3.70;;;6.40;99.90;;;;;;4957400;28;20736;-57
2023/12/28 00:59:43;;;;;;;7.20;3.33;;;6.40;99.90;;;;;;4951879;28;20308;-56
2023/12/28 01:02:09;;;;;;;6.63;3.53;;;6.40;99.90;;;;;;4954339;28;20216;-55
2023/12/28 01:04:35;;;;;;;4.47;3.23;;;6.40;99.90;;;;;;4961728;28;20208;-55
2023/12/28 01:07:02;;;;;;;5.13;3.23;;;6.40;99.90;;;;;;4962619;28;20209;-55
2023/12/28 01:09:27;;;;;;;5.27;2.97;;;6.40;99.90;;;;;;4961952;28;20212;-62
2023/12/28 01:11:53;;;;;;;3.93;2.97;;;6.40;99.90;;;;;;4960814;28;20213;-61
2023/12/28 01:14:19;;;;;;;4.13;3.33;;;6.40;99.90;;;;;;4954623;28;20202;-63
2023/12/28 01:16:44;;;;;;;4.40;3.00;;;6.40;99.90;;;;;;4952784;28;20244;-58
2023/12/28 01:19:10;;;;;;;4.83;3.13;;;6.40;99.90;;;;;;4957299;28;20272;-61
2023/12/28 01:21:35;;;;;;;3.60;2.97;;;6.50;99.90;;;;;;4962617;28;20276;-58
2023/12/28 01:24:01;;;;;;;2.97;2.60;;;6.50;99.90;;;;;;4961278;28;20301;-54
2023/12/28 01:26:26;;;;;;;4.07;2.63;;;6.40;99.90;;;;;;4960266;28;20615;-53
2023/12/28 01:28:52;;;;;;;5.13;3.43;;;6.50;99.90;;;;;;4953336;28;20384;-55
2023/12/28 01:31:17;;;;;;;3.97;2.73;;;6.60;99.90;;;;;;4962050;28;20206;-55
2023/12/28 01:33:43;;;;;;;5.77;3.37;;;6.50;99.90;;;;;;4953161;28;20292;-55
2023/12/28 01:36:19;;;;;;;4.87;2.70;;;6.50;99.90;;;;;;4960608;28;20209;-55
2023/12/28 01:38:45;;;;;;;3.20;2.90;;;6.50;99.90;;;;;;4953555;28;20213;-56
2023/12/28 01:41:12;;;;;;;5.00;2.87;;;6.50;99.90;;;;;;4949631;28;20884;-51
2023/12/28 01:43:38;;;;;;;3.07;2.60;;;6.60;99.90;;;;;;4956288;28;20297;-51
2023/12/28 01:46:05;;;;;;;3.90;2.73;;;6.50;99.90;;;;;;4947448;28;20513;-52
2023/12/28 01:48:32;;;;;;;4.17;2.80;;;6.60;99.90;;;;;;4951781;28;20398;-52
2023/12/28 01:50:58;;;;;;;3.87;2.13;;;6.60;99.90;;;;;;4955843;28;20291;-51
2023/12/28 01:53:24;;;;;;;5.73;3.00;;;6.50;99.90;;;;;;4957509;28;20270;-53
2023/12/28 01:55:50;;;;;;;3.77;2.70;;;6.50;99.90;;;;;;4958788;28;20194;-52
2023/12/28 01:58:15;;;;;;;3.60;2.30;;;6.40;99.90;;;;;;4961350;28;20238;-52
2023/12/28 02:00:42;;;;;;;5.80;3.27;;;6.50;99.90;;;;;;4959966;28;21082;-52
2023/12/28 02:03:08;;;;;;;4.87;2.73;;;6.60;99.90;;;;;;4957025;28;20193;-51
2023/12/28 02:05:34;;;;;;;2.37;2.07;;;6.60;99.90;;;;;;4947788;28;20206;-50
2023/12/28 02:08:00;;;;;;;3.77;2.80;;;6.60;99.90;;;;;;4950865;28;20225;-50
2023/12/28 02:10:26;;;;;;;4.53;2.87;;;6.60;99.90;;;;;;4957102;28;20208;-49
2023/12/28 02:12:53;;;;;;;3.47;2.67;;;6.70;99.90;;;;;;4959742;28;20238;-51
2023/12/28 02:15:19;;;;;;;2.60;2.07;;;6.60;99.90;;;;;;4956245;28;20211;-50
2023/12/28 02:18:11;;;;;;;2.90;2.10;;;6.70;99.90;;;;;;4965620;28;20698;-50
2023/12/28 02:20:37;;;;;;;2.50;2.10;;;6.80;99.90;;;;;;4961363;28;20312;-51
2023/12/28 02:23:04;;;;;;;2.33;2.13;;;6.70;99.90;;;;;;4958472;28;20268;-50
2023/12/28 02:25:29;;;;;;;2.03;1.83;;;6.80;99.90;;;;;;4957806;28;20204;-50
2023/12/28 02:27:55;;;;;;;2.10;2.00;;;6.90;99.90;;;;;;4957627;28;20618;-52
2023/12/28 02:30:23;;;;;;;2.90;2.00;;;7.00;99.90;;;;;;4969762;28;20211;-51
2023/12/28 02:33:00;;;;;;;5.23;2.47;;;7.00;99.90;;;;;;4959886;28;20257;-52
2023/12/28 02:35:42;;;;;;;1.90;1.80;;;7.10;99.90;;;;;;4958513;28;20293;-52
2023/12/28 02:38:13;;;;;;;2.40;2.17;;;7.20;99.90;;;;;;4959546;28;20303;-51
2023/12/28 02:40:41;;;;;;;2.40;1.70;;;7.30;99.90;;;;;;4956017;28;20233;-52
2023/12/28 02:43:07;;;;;;;2.17;1.93;;;7.50;99.90;;;;;;4959597;28;20239;-52
2023/12/28 02:45:34;;;;;;;3.87;1.83;;;7.60;99.90;;;;;;4956011;28;20576;-52
2023/12/28 02:48:00;;;;;;;5.50;2.10;;;7.80;99.90;;;;;;4958904;28;20224;-52
2023/12/28 02:50:25;;;;;;;2.77;1.50;;;7.90;99.90;;;;;;4953031;28;20238;-51
2023/12/28 02:52:51;;;;;;;3.10;2.90;;;8.00;99.90;;;;;;4960905;28;20216;-50
2023/12/28 02:55:16;;;;;;;2.17;1.80;;;8.10;99.90;;;;;;4963401;28;20220;-50
2023/12/28 02:57:44;;;;;;;2.27;1.60;;;8.20;99.90;;;;;;4958755;28;20250;-50
2023/12/28 03:00:11;;;;;;;3.13;1.67;;;8.20;99.90;;;;;;4953844;28;20201;-50
2023/12/28 03:02:37;;;;;;;1.50;1.40;;;8.30;99.90;;;;;;4956718;28;20200;-52
2023/12/28 03:05:05;;;;;;;1.50;1.40;;;8.30;99.90;;;;;;4955707;28;20770;-50
2023/12/28 03:07:31;;;;;;;1.60;1.50;;;8.40;99.90;;;;;;4960551;28;20213;-50
2023/12/28 03:09:57;;;;;;;1.60;1.50;;;8.60;99.90;;;;;;4961195;28;20201;-54
2023/12/28 03:12:22;;;;;;;1.90;1.70;;;8.60;99.90;;;;;;4957282;28;20278;-50
2023/12/28 03:14:48;;;;;;;2.03;1.50;;;8.60;99.90;;;;;;4957069;28;20394;-50
2023/12/28 03:17:13;;;;;;;1.60;1.47;;;8.70;99.90;;;;;;4954039;28;20190;-51
2023/12/28 03:19:39;;;;;;;2.33;1.70;;;8.70;99.90;;;;;;4954855;28;20201;-50
2023/12/28 03:22:04;;;;;;;1.50;1.40;;;8.70;99.90;;;;;;4962476;28;20201;-50
2023/12/28 03:24:30;;;;;;;2.37;1.80;;;8.80;99.90;;;;;;4956685;28;20225;-50
2023/12/28 03:26:55;;;;;;;1.80;1.30;;;8.90;99.90;;;;;;4960545;28;20210;-51
2023/12/28 03:29:21;;;;;;;1.47;1.33;;;8.90;99.90;;;;;;4955646;28;20291;-61
2023/12/28 03:31:46;;;;;;;1.20;1.10;;;8.90;99.90;;;;;;4957722;28;20706;-58
2023/12/28 03:34:12;;;;;;;1.50;1.40;;;8.90;99.90;;;;;;4959323;28;20293;-58
2023/12/28 03:36:37;;;;;;;1.67;1.57;;;8.90;99.90;;;;;;4954980;28;20695;-51
2023/12/28 03:39:06;;;;;;;1.70;1.47;;;8.90;99.90;;;;;;4959310;28;20264;-51
2023/12/28 03:41:32;;;;;;;2.00;1.17;;;8.90;99.90;;;;;;4951538;28;20208;-51
2023/12/28 03:43:57;;;;;;;2.77;1.40;;;8.90;99.90;;;;;;4950936;28;20198;-50
2023/12/28 03:46:23;;;;;;;1.80;1.70;;;8.90;99.90;;;;;;4952098;28;20220;-50
2023/12/28 03:48:48;;;;;;;2.93;1.40;;;8.90;99.90;;;;;;4953916;28;20213;-51
2023/12/28 03:51:15;;;;;;;2.23;1.97;;;8.80;99.90;;;;;;4952710;28;20209;-52
2023/12/28 03:53:41;;;;;;;1.57;1.30;;;8.80;99.90;;;;;;4961226;28;20240;-51
2023/12/28 03:56:07;;;;;;;2.40;1.43;;;8.70;99.90;;;;;;4953567;28;21042;-52
2023/12/28 03:58:32;;;;;;;2.07;1.27;;;8.60;99.90;;;;;;4962257;28;20205;-51
2023/12/28 04:00:58;;;;;;;1.50;1.40;;;8.70;99.90;;;;;;4958247;28;20197;-51
2023/12/28 04:03:24;;;;;;;2.13;1.50;;;8.70;99.90;;;;;;4958746;28;20731;-50
2023/12/28 04:05:50;;;;;;;2.03;1.60;;;8.70;99.90;;;;;;4961019;28;20547;-50
2023/12/28 04:08:16;;;;;;;1.07;1.07;;;8.70;99.90;;;;;;4954650;28;20308;-50
2023/12/28 04:10:41;;;;;;;1.50;1.40;;;8.70;99.90;;;;;;4960806;28;20320;-51
2023/12/28 04:13:07;;;;;;;1.37;1.27;;;8.70;99.90;;;;;;4962681;28;20703;-51
2023/12/28 04:15:32;;;;;;;1.30;1.30;;;8.70;99.90;;;;;;4961640;28;20216;-51
2023/12/28 04:17:58;;;;;;;3.57;1.40;;;8.70;99.90;;;;;;4955286;28;20224;-51
2023/12/28 04:20:23;;;;;;;2.00;1.53;;;8.80;99.90;;;;;;4959209;28;20572;-51
2023/12/28 04:22:49;;;;;;;4.30;1.60;;;8.70;99.90;;;;;;4955482;28;20286;-51
2023/12/28 04:25:18;;;;;;;2.53;1.50;;;8.80;99.90;;;;;;4960249;28;20204;-51
2023/12/28 04:27:43;;;;;;;1.77;1.50;;;8.80;99.90;;;;;;4962742;28;20247;-51
2023/12/28 04:30:12;;;;;;;3.53;1.43;;;8.80;99.90;;;;;;4960899;28;20296;-51
2023/12/28 04:32:37;;;;;;;2.53;1.60;;;8.90;99.90;;;;;;4958555;28;20204;-51
2023/12/28 04:35:03;;;;;;;2.00;1.67;;;8.90;99.90;;;;;;4959308;28;20221;-51
2023/12/28 04:37:30;;;;;;;1.47;1.37;;;8.90;99.90;;;;;;4958144;28;20240;-51
2023/12/28 04:39:56;;;;;;;2.20;1.10;;;9.00;99.90;;;;;;4962705;28;20254;-51
2023/12/28 04:42:22;;;;;;;1.93;1.30;;;9.00;99.90;;;;;;4964331;28;20213;-51
2023/12/28 04:44:47;;;;;;;2.00;1.27;;;9.00;99.90;;;;;;4954751;28;20205;-51
2023/12/28 04:47:13;;;;;;;1.50;1.40;;;9.00;99.90;;;;;;4955728;28;20213;-51
2023/12/28 04:49:38;;;;;;;1.20;1.03;;;9.00;99.90;;;;;;4954048;28;20388;-56
2023/12/28 04:52:04;;;;;;;2.70;1.40;;;9.10;99.90;;;;;;4954680;28;20217;-51
2023/12/28 04:54:30;;;;;;;3.97;1.90;;;9.20;99.90;;;;;;4959497;28;20209;-51
2023/12/28 04:56:55;;;;;;;1.60;1.37;;;9.20;99.90;;;;;;4963083;28;20224;-52
2023/12/28 04:59:20;;;;;;;1.77;1.67;;;9.20;99.90;;;;;;4950079;28;20572;-51
2023/12/28 05:01:46;;;;;;;3.67;1.50;;;9.20;99.90;;;;;;4958964;28;21033;-51
2023/12/28 05:04:11;;;;;;;3.13;1.50;;;9.30;99.90;;;;;;4957418;28;20205;-51
2023/12/28 05:06:37;;;;;;;1.00;1.00;;;9.30;99.90;;;;;;4960510;28;20247;-51
2023/12/28 05:09:04;;;;;;;1.30;1.20;;;9.30;99.90;;;;;;4953411;28;20228;-51
2023/12/28 05:11:29;;;;;;;1.33;1.20;;;9.30;99.90;;;;;;4958442;28;20524;-51
2023/12/28 05:13:55;;;;;;;1.33;0.83;;;9.30;99.90;;;;;;4953654;28;20189;-51
2023/12/28 05:16:21;;;;;;;1.50;1.10;;;9.30;99.90;;;;;;4957166;28;20244;-53
2023/12/28 05:18:47;;;;;;;1.30;1.20;;;9.30;99.90;;;;;;4956558;28;20312;-53
2023/12/28 05:21:12;;;;;;;2.17;1.40;;;9.30;99.90;;;;;;4964528;28;20204;-52
2023/12/28 05:23:38;;;;;;;3.67;1.30;;;9.30;99.90;;;;;;4953163;28;20205;-51
2023/12/28 05:26:04;;;;;;;4.63;1.83;;;9.40;99.90;;;;;;4955104;28;20205;-51
2023/12/28 05:28:30;;;;;;;1.80;1.27;;;9.30;99.90;;;;;;4958775;28;20244;-54
2023/12/28 05:30:56;;;;;;;1.87;1.20;;;9.30;99.90;;;;;;4956793;28;20244;-51
2023/12/28 05:33:22;;;;;;;1.90;1.50;;;9.40;99.90;;;;;;4956831;28;20642;-51
2023/12/28 05:35:48;;;;;;;2.00;1.33;;;9.40;99.90;;;;;;4954932;28;20202;-61
2023/12/28 05:38:13;;;;;;;2.33;1.27;;;9.40;99.90;;;;;;4956209;28;20287;-51
2023/12/28 05:40:39;;;;;;;1.33;1.23;;;9.40;99.90;;;;;;4956294;28;20298;-51
2023/12/28 05:43:04;;;;;;;3.30;1.40;;;9.40;99.90;;;;;;4956603;28;20749;-51
2023/12/28 05:45:30;;;;;;;2.23;1.43;;;9.40;99.90;;;;;;4949308;28;20197;-51
2023/12/28 05:47:56;;;;;;;1.70;1.30;;;9.40;99.90;;;;;;4954812;28;20221;-51
2023/12/28 05:50:22;;;;;;;1.50;1.40;;;9.30;99.90;;;;;;4950055;28;20255;-51
2023/12/28 05:52:47;;;;;;;3.20;1.40;;;9.40;99.90;;;;;;4954319;28;20216;-52
2023/12/28 05:55:13;;;;;;;1.67;1.20;;;9.40;99.90;;;;;;4953235;28;20201;-52
2023/12/28 05:57:38;;;;;;;1.80;1.43;;;9.30;99.90;;;;;;4954877;28;20215;-50
2023/12/28 06:00:06;;;;;;;1.50;1.40;;;9.30;99.90;;;;;;4952465;28;20276;-50
2023/12/28 06:02:31;;;;;;;2.70;1.40;;;9.40;99.90;;;;;;4959167;28;20207;-51
2023/12/28 06:04:57;;;;;;;2.13;1.93;;;9.40;99.90;;;;;;4959230;28;20200;-51
2023/12/28 06:07:22;;;;;;;1.70;1.43;;;9.40;99.90;;;;;;4955112;28;20209;-51
2023/12/28 06:09:48;;;;;;;1.13;1.13;;;9.40;99.90;;;;;;4956280;28;20387;-51
2023/12/28 06:12:14;;;;;;;6.43;1.57;;;9.50;99.90;;;;;;4953553;28;20278;-52
2023/12/28 06:14:40;;;;;;;1.80;1.60;;;9.50;99.90;;;;;;4955384;28;20197;-51
2023/12/28 06:17:05;;;;;;;1.70;1.60;;;9.40;99.90;;;;;;4955115;28;20220;-51
2023/12/28 06:19:31;;;;;;;1.70;1.60;;;9.50;99.90;;;;;;4955114;28;20201;-52
2023/12/28 06:21:58;;;;;;;4.00;2.13;;;9.50;99.90;;;;;;4953257;28;20205;-52
2023/12/28 06:24:23;;;;;;;1.27;1.17;;;9.50;99.90;;;;;;4955056;28;20189;-51
2023/12/28 06:26:49;;;;;;;1.87;1.67;;;9.50;99.90;;;;;;4955468;28;20202;-51
2023/12/28 06:29:15;;;;;;;4.30;1.53;;;9.50;99.90;;;;;;4956159;28;20214;-51
2023/12/28 06:31:41;;;;;;;1.40;1.30;;;9.50;99.90;;;;;;4952183;28;20228;-51
2023/12/28 06:34:06;;;;;;;3.20;1.73;;;9.60;99.90;;;;;;4955089;28;20237;-51
2023/12/28 06:36:33;;;;;;;1.37;1.27;;;9.60;99.90;;;;;;4957718;28;20399;-51
2023/12/28 06:38:59;;;;;;;1.80;1.50;;;9.60;99.90;;;;;;4958269;28;20210;-51
2023/12/28 06:41:25;;;;;;;1.93;1.43;;;9.50;99.90;;;;;;4955397;28;20212;-51
2023/12/28 06:43:52;;;;;;;2.60;1.57;;;9.50;99.90;;;;;;4958328;28;20284;-51
2023/12/28 06:46:18;;;;;;;1.37;1.27;;;9.50;99.90;;;;;;4953180;28;20280;-51
2023/12/28 06:48:44;;;;;;;2.23;1.73;;;9.50;99.90;;;;;;4954839;28;20816;-51
2023/12/28 06:51:20;;;;;;;1.67;1.43;;;9.50;99.90;;;;;;4954703;28;20285;-51
2023/12/28 06:53:46;;;;;;;1.47;1.37;;;9.40;99.90;;;;;;4956487;28;20214;-51
2023/12/28 06:56:12;;;;;;;1.87;1.40;;;9.40;99.90;;;;;;4956209;28;20212;-51
2023/12/28 06:58:38;;;;;;;1.53;1.40;;;9.50;99.90;;;;;;4958994;28;20201;-51
2023/12/28 07:01:06;;;;;;;4.40;1.50;;;9.50;99.90;;;;;;4955516;28;20209;-50
2023/12/28 07:03:32;;;;;;;3.17;1.50;;;9.50;99.90;;;;;;4959469;28;20876;-50
2023/12/28 07:05:59;;;;;;;1.67;1.57;;;9.40;99.90;;;;;;4961677;28;20197;-51
2023/12/28 07:08:24;;;;;;;2.03;1.83;;;9.40;99.90;;;;;;4956236;28;20300;-51
2023/12/28 07:10:50;;;;;;;3.50;1.90;;;9.40;99.90;;;;;;4954130;28;20755;-51
2023/12/28 07:13:16;;;;;;;1.80;1.43;;;9.30;99.90;;;;;;4956721;28;20201;-51
2023/12/28 07:15:41;;;;;;;1.47;1.30;;;9.30;99.90;;;;;;4958446;28;20289;-58
2023/12/28 07:18:07;;;;;;;1.53;1.37;;;9.30;99.90;;;;;;4953211;28;20201;-59
2023/12/28 07:20:32;;;;;;;2.63;1.50;;;9.30;99.90;;;;;;4963788;28;20258;-61
2023/12/28 07:22:58;;;;;;;3.93;1.60;;;9.20;99.90;;;;;;4960550;28;20228;-52
2023/12/28 07:25:24;;;;;;;1.93;1.83;;;9.20;99.90;;;;;;4958689;28;20204;-52
2023/12/28 07:27:49;;;;;;;2.07;1.33;;;9.30;99.90;;;;;;4952929;28;20332;-51
2023/12/28 07:30:16;;;;;;;1.93;1.67;;;9.30;99.90;;;;;;4955998;28;20675;-52
2023/12/28 07:32:42;;;;;;;2.13;1.40;;;9.20;99.90;;;;;;4954594;28;20225;-52
2023/12/28 07:35:07;;;;;;;1.83;1.60;;;9.20;99.90;;;;;;4960634;28;20737;-52
2023/12/28 07:37:33;;;;;;;1.57;1.47;;;9.20;99.90;;;;;;4953798;28;20229;-52
2023/12/28 07:39:58;;;;;;;2.40;1.47;;;9.20;99.90;;;;;;4962207;28;20213;-52
2023/12/28 07:42:24;;;;;;;3.23;2.00;;;9.20;99.90;;;;;;4954604;28;20217;-52
2023/12/28 07:44:49;;;;;;;1.70;1.60;;;9.20;99.90;;;;;;4952626;28;20229;-52
2023/12/28 07:47:15;;;;;;;0.93;0.93;;;9.20;99.90;;;;;;4952746;28;21075;-51
2023/12/28 07:49:41;;;;;;;2.20;1.57;;;9.20;99.90;;;;;;4950342;28;20217;-51
2023/12/28 07:52:07;;;;;;;2.70;1.87;;;9.30;99.90;;;;;;4950268;28;20245;-54
2023/12/28 07:54:32;;;;;;;2.83;1.50;;;9.20;99.90;;;;;;4952045;28;20554;-54
2023/12/28 07:56:58;;;;;;;3.10;1.93;;;9.20;99.90;;;;;;4952552;28;20258;-52
2023/12/28 07:59:24;;;;;;;2.57;1.73;;;9.20;99.90;;;;;;4950936;28;20216;-52
2023/12/28 08:01:49;;;;;;;1.67;1.57;;;9.30;99.90;;;;;;4949598;28;20202;-55
2023/12/28 08:04:15;;;;;;;1.53;1.43;;;9.20;99.90;;;;;;4951838;28;20209;-52
2023/12/28 08:06:40;;;;;;;2.13;1.57;;;9.20;99.90;;;;;;4950486;28;20197;-52
2023/12/28 08:09:06;;;;;;;2.20;1.47;;;9.30;99.90;;;;;;4951863;28;20214;-54
2023/12/28 08:11:31;;;;;;;3.73;1.43;;;9.30;99.90;;;;;;4952895;28;20331;-51
2023/12/28 08:13:57;;;;;;;3.33;1.67;;;9.20;99.90;;;;;;4951083;28;20205;-55
2023/12/28 08:16:22;;;;;;;2.70;1.60;;;9.20;99.90;;;;;;4954885;28;20267;-55
2023/12/28 08:18:48;;;;;;;2.00;1.80;;;9.30;99.90;;;;;;4954859;28;20860;-56
2023/12/28 08:21:14;;;;;;;3.83;1.53;;;9.30;99.90;;;;;;4957601;28;20248;-55
2023/12/28 08:23:39;;;;;;;1.60;1.50;;;9.30;99.90;;;;;;4956175;28;20205;-55
2023/12/28 08:26:06;;;;;;;2.10;1.43;;;9.30;99.90;;;;;;4953904;28;20634;-55
2023/12/28 08:28:32;;;;;;;2.37;1.60;;;9.30;99.90;;;;;;4956228;28;20215;-55
2023/12/28 08:30:58;;;;;;;2.27;1.60;;;9.30;99.90;;;;;;4963572;28;20207;-55
2023/12/28 08:33:23;;;;;;;2.53;1.63;;;9.30;99.90;;;;;;4963033;28;20626;-55
2023/12/28 08:35:49;;;;;;;1.67;1.57;;;9.30;99.90;;;;;;4953621;28;20282;-55
2023/12/28 08:38:15;;;;;;;1.90;1.70;;;9.30;99.90;;;;;;4956516;28;20727;-55
2023/12/28 08:40:41;;;;;;;1.80;1.70;;;9.30;99.90;;;;;;4958170;28;20209;-64
2023/12/28 08:43:07;;;;;;;2.03;1.63;;;9.30;99.90;;;;;;4952876;28;20289;-65
2023/12/28 08:45:34;;;;;;;1.70;1.60;;;9.40;99.90;;;;;;4947793;28;20193;-55
2023/12/28 08:47:59;;;;;;;2.90;1.70;;;9.50;99.90;;;;;;4953327;28;20222;-55
2023/12/28 08:50:25;;;;;;;2.43;2.00;;;9.50;99.90;;;;;;4950878;28;20655;-55
2023/12/28 08:52:50;;;;;;;2.83;1.80;;;9.50;99.90;;;;;;4955711;28;20842;-57
2023/12/28 08:55:16;;;;;;;3.50;1.80;;;9.50;99.90;;;;;;4954111;28;20212;-55
2023/12/28 08:57:41;;;;;;;2.40;2.20;;;9.50;99.90;;;;;;4949812;28;20694;-56
2023/12/28 09:00:08;;;;;;;1.67;1.57;;;9.60;99.90;;;;;;4952144;28;20198;-55
2023/12/28 09:02:36;;;;;;;3.50;2.60;;;9.60;99.90;;;;;;4957771;28;20690;-63
2023/12/28 09:05:02;;;;;;;2.00;1.90;;;9.60;99.90;;;;;;4956623;28;20202;-63
2023/12/28 09:07:28;;;;;;;3.60;1.83;;;9.60;99.90;;;;;;4949985;28;20257;-62
2023/12/28 09:09:54;;;;;;;3.30;1.70;;;9.60;99.90;;;;;;4953627;28;20236;-64
2023/12/28 09:12:20;;;;;;;2.97;1.77;;;9.80;99.90;;;;;;4955112;28;20258;-55
2023/12/28 09:14:46;;;;;;;1.87;1.63;;;9.70;99.90;;;;;;4956916;28;20198;-55
2023/12/28 09:17:11;;;;;;;1.77;1.67;;;9.60;99.90;;;;;;4959257;28;20201;-55
2023/12/28 09:19:37;;;;;;;2.07;1.87;;;9.60;99.90;;;;;;4954390;28;20197;-55
2023/12/28 09:22:03;;;;;;;3.53;2.17;;;9.60;99.90;;;;;;4951883;28;20209;-55
2023/12/28 09:24:29;;;;;;;2.40;1.63;;;9.70;99.90;;;;;;4957591;28;20290;-55
2023/12/28 09:26:54;;;;;;;1.87;1.37;;;10.00;99.90;;;;;;4952725;28;20228;-55
2023/12/28 09:29:20;;;;;;;2.30;1.50;;;9.80;99.90;;;;;;4953742;28;20213;-54
2023/12/28 09:31:46;;;;;;;2.63;1.97;;;9.70;99.90;;;;;;4988806;23;20766;-54
2023/12/28 09:34:11;;;;;;;1.60;1.50;;;9.60;99.90;;;;;;4962864;28;20279;-55
2023/12/28 09:36:37;;;;;;;1.30;1.30;;;9.60;99.90;;;;;;4961912;28;20280;-55
2023/12/28 09:39:03;;;;;;;1.90;1.67;;;9.60;99.90;;;;;;4968207;28;20238;-55
2023/12/28 09:41:34;;;;;;;2.53;2.00;;;9.70;99.90;;;;;;4969113;28;20235;-55
2023/12/28 09:44:08;;;;;;;2.40;1.60;;;9.60;99.90;;;;;;4968443;28;20200;-55
2023/12/28 09:46:33;;;;;;;2.30;2.10;;;9.70;99.90;;;;;;4972154;28;20212;-55
2023/12/28 09:48:59;;;;;;;2.13;1.80;;;9.60;99.90;;;;;;4977461;28;20200;-55
2023/12/28 09:51:28;;;;;;;2.37;1.87;;;9.60;99.90;;;;;;4969810;28;20636;-57
2023/12/28 09:53:54;;;;;;;2.63;1.67;;;9.60;99.90;;;;;;4958325;28;20217;-56
2023/12/28 09:56:20;;;;;;;4.37;1.83;;;9.60;99.90;;;;;;4960247;28;21161;-54
2023/12/28 09:58:49;;;;;;;2.67;2.10;;;9.60;99.90;;;;;;4952041;28;20703;-55
2023/12/28 10:01:14;;;;;;;2.40;1.47;;;9.50;99.90;;;;;;4960120;28;20320;-56
2023/12/28 10:03:40;;;;;;;3.30;2.10;;;9.50;99.90;;;;;;4948218;28;20261;-58
2023/12/28 10:06:05;;;;;;;2.37;1.70;;;9.50;99.90;;;;;;4941993;28;20193;-55
2023/12/28 10:08:31;;;;;;;1.90;1.50;;;9.50;99.90;;;;;;4960539;28;20737;-55
2023/12/28 10:10:58;;;;;;;3.00;1.50;;;9.50;99.90;;;;;;4959797;28;20912;-54
2023/12/28 10:13:25;;;;;;;3.87;2.00;;;9.50;99.90;;;;;;4960625;28;20186;-55
2023/12/28 10:15:50;;;;;;;4.67;2.23;;;9.50;99.90;;;;;;4931131;28;20298;-55
2023/12/28 10:18:19;;;;;;;2.70;2.03;;;9.50;99.90;;;;;;4960380;28;20242;-55
2023/12/28 10:20:50;;;;;;;3.87;2.40;;;9.50;99.90;;;;;;4959696;28;20190;-55
2023/12/28 10:23:16;;;;;;;3.97;1.77;;;9.70;99.90;;;;;;4960815;28;20670;-55
2023/12/28 10:25:42;;;;;;;2.07;1.67;;;9.70;99.90;;;;;;4942808;28;20305;-55
2023/12/28 10:28:09;;;;;;;2.43;1.90;;;9.80;99.90;;;;;;4955919;28;20818;-55
2023/12/28 10:30:35;;;;;;;2.17;1.60;;;9.90;99.90;;;;;;4958612;28;20193;-55
2023/12/28 10:33:00;;;;;;;4.47;2.47;;;10.00;99.90;;;;;;4959900;28;20189;-55
2023/12/28 10:35:26;;;;;;;2.60;2.20;;;10.10;99.90;;;;;;4941887;28;20198;-56
2023/12/28 10:37:53;;;;;;;2.43;2.00;;;10.20;99.90;;;;;;4963298;28;20205;-55
2023/12/28 10:40:21;;;;;;;2.43;1.90;;;10.20;99.90;;;;;;4963941;28;20194;-55
2023/12/28 10:42:51;;;;;;;4.57;2.20;;;10.20;99.90;;;;;;4962813;28;20200;-55
2023/12/28 10:45:20;;;;;;;3.13;2.30;;;10.30;99.90;;;;;;4954712;28;20191;-54
2023/12/28 10:47:58;;;;;;;5.33;2.30;;;10.20;99.90;;;;;;4943897;28;20658;-54
2023/12/28 10:50:27;;;;;;;2.57;2.07;;;10.50;99.90;;;;;;4961122;28;20217;-54
2023/12/28 10:53:00;;;;;;;2.07;1.87;;;10.50;99.90;;;;;;4924891;29;20219;-55
2023/12/28 10:55:57;;;;;;;4.23;1.97;;;10.50;99.90;;;;;;4955053;28;20731;-55
2023/12/28 10:58:36;;;;;;;2.87;2.07;;;10.40;99.90;;;;;;4960498;28;20267;-56
2023/12/28 11:01:09;;;;;;;3.10;1.70;;;10.50;99.90;;;;;;4939384;28;20213;-55
2023/12/28 11:03:40;;;;;;;2.00;1.90;;;10.50;99.90;;;;;;4963364;28;20186;-54
2023/12/28 11:06:08;;;;;;;2.43;2.00;;;10.60;99.90;;;;;;4961074;28;20248;-54
2023/12/28 11:08:35;;;;;;;2.97;2.67;;;10.60;99.90;;;;;;4955370;28;20222;-54
2023/12/28 11:11:03;;;;;;;2.10;1.90;;;10.40;99.90;;;;;;4961987;28;20198;-54
2023/12/28 11:13:31;;;;;;;2.47;2.00;;;10.60;99.90;;;;;;4963053;28;20268;-54
2023/12/28 11:15:58;;;;;;;2.00;1.77;;;10.70;99.90;;;;;;4960954;28;20309;-54
2023/12/28 11:18:25;;;;;;;2.57;1.73;;;10.40;99.90;;;;;;4963485;28;20191;-54
2023/12/28 11:20:51;;;;;;;2.73;2.17;;;10.50;99.90;;;;;;4962406;28;20216;-54
2023/12/28 11:23:17;;;;;;;3.23;2.23;;;10.50;99.90;;;;;;4962703;28;20190;-54
2023/12/28 11:25:43;;;;;;;3.77;1.90;;;10.30;99.90;;;;;;4944729;28;20197;-55
2023/12/28 11:28:10;;;;;;;2.87;2.27;;;10.20;99.90;;;;;;4945316;28;20217;-54
2023/12/28 11:30:36;;;;;;;2.17;2.07;;;10.30;99.90;;;;;;4962315;28;20269;-55
2023/12/28 11:33:05;;;;;;;2.87;2.20;;;10.30;99.90;;;;;;4945730;28;20229;-55
2023/12/28 11:35:35;;;;;;;1.90;1.77;;;10.40;99.90;;;;;;4961923;28;20539;-55
2023/12/28 11:38:06;;;;;;;2.80;2.27;;;10.70;99.90;;;;;;4959183;28;20259;-55
2023/12/28 11:40:39;;;;;;;1.57;1.47;;;10.70;99.90;;;;;;4962321;28;20193;-55
2023/12/28 11:43:18;;;;;;;3.77;2.03;;;10.80;99.90;;;;;;4962435;28;20672;-55
2023/12/28 11:45:51;;;;;;;3.10;1.87;;;11.10;99.90;;;;;;4927906;28;20499;-54
2023/12/28 11:48:27;;;;;;;2.77;1.50;;;11.40;99.90;;;;;;4944652;28;20388;-55
2023/12/28 11:50:57;;;;;;;1.83;1.57;;;11.50;99.90;;;;;;4940005;28;20287;-54
2023/12/28 11:53:23;;;;;;;1.60;1.50;;;11.60;99.90;;;;;;4962269;28;20253;-54
2023/12/28 11:55:49;;;;;;;2.27;1.80;;;11.50;99.90;;;;;;4944477;28;20207;-54
2023/12/28 11:58:19;;;;;;;1.97;1.60;;;11.40;99.90;;;;;;4934459;28;20249;-54
2023/12/28 12:00:44;;;;;;;1.70;1.60;;;11.60;99.90;;;;;;4961704;28;20294;-54
2023/12/28 12:03:11;;;;;;;2.07;1.57;;;11.90;99.90;;;;;;4962482;28;20274;-54
2023/12/28 12:05:37;;;;;;;3.97;1.70;;;11.50;99.90;;;;;;4961731;28;20216;-54
2023/12/28 12:08:03;;;;;;;3.30;2.00;;;11.80;99.90;;;;;;4944707;28;20588;-54
2023/12/28 12:10:28;;;;;;;3.97;1.63;;;12.00;99.90;;;;;;4961509;28;20183;-54
2023/12/28 12:12:54;;;;;;;1.80;1.70;;;12.30;99.90;;;;;;4962364;28;20453;-55
2023/12/28 12:15:20;;;;;;;4.00;1.70;;;12.30;99.90;;;;;;4972024;28;20655;-55
2023/12/28 12:17:46;;;;;;;2.47;1.90;;;12.10;99.90;;;;;;4955326;28;20303;-55
2023/12/28 12:20:11;;;;;;;3.37;2.03;;;12.20;99.90;;;;;;4961378;28;20192;-55
2023/12/28 12:22:37;;;;;;;4.00;1.80;;;12.20;99.90;;;;;;4960965;28;20679;-56
2023/12/28 12:25:05;;;;;;;2.47;1.43;;;12.40;99.90;;;;;;4961513;28;20196;-56
2023/12/28 12:27:31;;;;;;;3.43;1.50;;;12.70;99.90;;;;;;4961473;28;20576;-54
2023/12/28 12:29:56;;;;;;;2.93;1.43;;;12.70;99.90;;;;;;4954941;28;20273;-55
2023/12/28 12:32:22;;;;;;;1.77;1.67;;;12.50;99.90;;;;;;4958638;28;20788;-55
2023/12/28 12:34:48;;;;;;;2.03;1.70;;;12.70;99.90;;;;;;4961479;28;20537;-54
2023/12/28 12:37:14;;;;;;;1.77;1.60;;;12.90;99.90;;;;;;4960327;28;20221;-54
2023/12/28 12:39:40;;;;;;;4.77;2.00;;;12.90;99.90;;;;;;4960957;28;20192;-54
2023/12/28 12:42:05;;;;;;;1.80;1.40;;;12.40;99.90;;;;;;4961612;28;20216;-54
2023/12/28 12:44:31;;;;;;;4.43;2.00;;;12.30;99.90;;;;;;4961519;28;20195;-54
2023/12/28 12:47:01;;;;;;;2.73;1.73;;;11.90;99.90;;;;;;4960039;28;20216;-54
2023/12/28 12:49:29;;;;;;;4.00;1.60;;;12.20;99.90;;;;;;4961373;28;20269;-55
2023/12/28 12:51:55;;;;;;;1.90;1.73;;;12.00;99.90;;;;;;4944130;28;20203;-56